This is the latest recevied weather packets stored in our database for station/object DL9LA-13. If no packets are shown the sender has not sent any weather packets the latest 1 day(s).
| Time | Temp. | Humidity | Pressure | Rain* | Wind** | Luminosity | Snow |
|---|---|---|---|---|---|---|---|
| 1777791403 | 17.78° C | 42% | 971 hPa | - | - | - | - |
| 1777790800 | 17.22° C | 42% | 971 hPa | - | - | - | - |
| 1777790196 | 16.67° C | 43% | 972 hPa | - | - | - | - |
| 1777788989 | 17.78° C | 38% | 972 hPa | - | - | - | - |
| 1777787781 | 22.22° C | 29% | 972 hPa | - | - | - | - |
| 1777787178 | 26.67° C | 26% | 971 hPa | - | - | - | - |
| 1777786574 | 25.56° C | 27% | 971 hPa | - | - | - | - |
| 1777785971 | 21.11° C | 33% | 971 hPa | - | - | - | - |
| 1777784763 | 19.44° C | 36% | 971 hPa | - | - | - | - |
| 1777784160 | 19.44° C | 36% | 971 hPa | - | - | - | - |
| 1777783556 | 16.11° C | 43% | 971 hPa | - | - | - | - |
| 1777782952 | 12.78° C | 51% | 971 hPa | - | - | - | - |
| 1777782349 | 12.22° C | 52% | 972 hPa | - | - | - | - |
| 1777781745 | 11.67° C | 53% | 971 hPa | - | - | - | - |
| 1777781141 | 11.67° C | 53% | 972 hPa | - | - | - | - |
| 1777780538 | 11.67° C | 54% | 972 hPa | - | - | - | - |
| 1777779934 | 11.11° C | 55% | 971 hPa | - | - | - | - |
| 1777779330 | 11.11° C | 55% | 972 hPa | - | - | - | - |
| 1777778727 | 11.67° C | 53% | 972 hPa | - | - | - | - |
| 1777778123 | 11.67° C | 53% | 972 hPa | - | - | - | - |
| 1777777520 | 11.67° C | 53% | 972 hPa | - | - | - | - |
| 1777776916 | 12.22° C | 51% | 972 hPa | - | - | - | - |
| 1777776312 | 11.67° C | 51% | 972 hPa | - | - | - | - |
| 1777775709 | 12.22° C | 50% | 972 hPa | - | - | - | - |
| 1777773898 | 12.78° C | 48% | 972 hPa | - | - | - | - |
* Rain since midnight (hover to see other rain measurements)
** Current wind speed in m/s (hover to see current wind gust speed)